Bidar Air Force Station
VOBR : now visible

Airfield :











YOU CAN JOIN US ON...

 
LOGIN :

Register | Disclaimer

   EN    FR    IT 

 









Legend :    VFR   Marginal VFR   IFR   Intensive IFR   Very Intensive IFR
Visi :
Ceiling :
>= 8 km
>= 3000ft
5 to 8 km
1000 to 3000 ft
1500m to 5 km
500 to 1000 ft
800 to 1500m
200 to 500 ft
< 800m
< 200 ft
Symbols :   Thunderstorms  Fog  Heavy snow  Heavy precipitations  Wind > 20 kt






- Airport Elevation : 2178 ft


VOBR - Bidar Air Force Station

METAR N/A
TAF TAF VOBR
Valid from the 19 at 06:00 until the 19 at 18:00 UTC


190330Z 1906/1918 26015KT 6000 SCT012 SCT020 BKN090
BECMG 1907/1910 3000 RABR SCT010 BKN020 BKN090
BECMG 1911/1913 27010G20KT 4000 TSRA SCT015 SCT020 FEW030CB BKN080



MET'MAP, your aeronautical weather chart ! - Copyright ORBIFLY December 2007 - Disclaimer

ORBIFLY MET'MAP TEAM :

Programming & Development : Alexandra Zaïnal
Original concept : Baudouin d'Aumeries
Technical & hardware support : Manuel Goepfert
Assistance : Marc-Olivier Méhu




SOURCES & CREDITS :

   NOAA       Earth
Advisory